Time;durP1;ratioP1;P1;durP2;ratioP2;P2;SDS_P1;SDS_P2;PMS_P1;PMS_P2;Temp;Humidity;BMP_temperature;BMP_pressure;BME280_temperature;BME280_humidity;BME280_pressure;Samples;Min_cycle;Max_cycle;Signal;HPM_P1;HPM_P2
2021/05/25 00:00:52;;;;;;;6.85;2.75;;;9.50;94.10;;;;;;5076760;28;20415;-68
2021/05/25 00:03:17;;;;;;;11.18;2.95;;;9.50;94.20;;;;;;5070886;28;20028;-68
2021/05/25 00:05:43;;;;;;;5.05;3.03;;;9.50;94.20;;;;;;5074008;28;20458;-68
2021/05/25 00:08:09;;;;;;;11.23;3.45;;;9.50;94.20;;;;;;5069538;28;20047;-66
2021/05/25 00:10:35;;;;;;;6.13;3.28;;;9.50;94.20;;;;;;5068233;28;20025;-68
2021/05/25 00:13:02;;;;;;;7.00;4.03;;;9.50;94.20;;;;;;5068909;28;20138;-68
2021/05/25 00:15:30;;;;;;;9.50;4.53;;;9.50;94.30;;;;;;5049713;28;20040;-67
2021/05/25 00:17:56;;;;;;;6.45;3.80;;;9.50;94.20;;;;;;5068622;28;20036;-68
2021/05/25 00:20:23;;;;;;;5.93;3.63;;;9.50;94.20;;;;;;5068623;28;20051;-68
2021/05/25 00:22:49;;;;;;;6.20;3.58;;;9.50;94.20;;;;;;5074404;28;20031;-68
2021/05/25 00:25:16;;;;;;;6.35;3.70;;;9.50;94.20;;;;;;5068208;28;20036;-67
2021/05/25 00:27:43;;;;;;;6.25;3.55;;;9.50;94.30;;;;;;5068616;28;20024;-67
2021/05/25 00:30:11;;;;;;;8.27;3.50;;;9.40;94.30;;;;;;5054940;28;20049;-67
2021/05/25 00:32:36;;;;;;;8.63;3.38;;;9.40;94.30;;;;;;5068955;28;20032;-68
2021/05/25 00:35:04;;;;;;;8.60;2.80;;;9.30;94.30;;;;;;5067821;28;20113;-68
2021/05/25 00:37:29;;;;;;;6.97;2.92;;;9.30;94.30;;;;;;5074556;28;20028;-68
2021/05/25 00:39:55;;;;;;;4.15;2.42;;;9.30;94.30;;;;;;5072114;28;20056;-68
2021/05/25 00:42:20;;;;;;;5.35;2.28;;;9.20;94.30;;;;;;5079532;28;20036;-68
2021/05/25 00:44:46;;;;;;;5.07;2.78;;;9.20;94.30;;;;;;5073164;28;20421;-68
2021/05/25 00:47:12;;;;;;;4.10;2.38;;;9.10;94.30;;;;;;5075005;28;20420;-67
2021/05/25 00:49:37;;;;;;;5.57;2.50;;;9.10;94.40;;;;;;5074924;28;20043;-68
2021/05/25 00:52:03;;;;;;;4.43;2.50;;;9.10;94.40;;;;;;5072175;28;20032;-68
2021/05/25 00:54:29;;;;;;;4.40;2.35;;;9.10;94.40;;;;;;5071692;28;20028;-68
2021/05/25 00:56:56;;;;;;;5.82;2.58;;;9.00;94.30;;;;;;5071290;28;20077;-68
2021/05/25 00:59:24;;;;;;;3.50;1.95;;;9.00;94.40;;;;;;5071974;28;20424;-68
2021/05/25 01:01:50;;;;;;;4.43;2.28;;;9.00;94.30;;;;;;5082548;28;20024;-68
2021/05/25 01:04:16;;;;;;;4.60;2.13;;;8.90;94.30;;;;;;5074074;28;20091;-67
2021/05/25 01:06:41;;;;;;;6.60;1.95;;;8.80;94.30;;;;;;5074132;28;20462;-68
2021/05/25 01:09:08;;;;;;;5.45;2.58;;;8.80;94.40;;;;;;5077694;28;20036;-68
2021/05/25 01:11:35;;;;;;;4.18;2.00;;;8.70;94.40;;;;;;5071819;28;20497;-68
2021/05/25 01:14:02;;;;;;;4.53;1.98;;;8.70;94.40;;;;;;5069477;28;20037;-69
2021/05/25 01:16:29;;;;;;;5.20;1.77;;;8.60;94.40;;;;;;5073747;28;20016;-66
2021/05/25 01:18:55;;;;;;;4.78;1.67;;;8.60;94.40;;;;;;5074139;28;20027;-66
2021/05/25 01:21:22;;;;;;;8.48;1.60;;;8.50;94.40;;;;;;5067330;28;20070;-66
2021/05/25 01:23:48;;;;;;;4.47;1.60;;;8.50;94.40;;;;;;5070517;28;20040;-67
2021/05/25 01:26:16;;;;;;;6.07;1.30;;;8.40;94.40;;;;;;5073542;28;20119;-67
2021/05/25 01:28:43;;;;;;;3.15;1.33;;;8.40;94.50;;;;;;5071434;28;20078;-67
2021/05/25 01:31:09;;;;;;;4.45;1.20;;;8.30;94.50;;;;;;5073941;28;20028;-67
2021/05/25 01:33:38;;;;;;;4.88;1.55;;;8.30;94.50;;;;;;5071495;28;20068;-67
2021/05/25 01:36:07;;;;;;;3.17;1.30;;;8.30;94.50;;;;;;5075938;28;20025;-67
2021/05/25 01:38:34;;;;;;;5.20;0.82;;;8.20;94.50;;;;;;5075534;28;20512;-66
2021/05/25 01:41:00;;;;;;;3.33;1.20;;;8.20;94.50;;;;;;5071788;28;20106;-67
2021/05/25 01:43:26;;;;;;;4.95;1.00;;;8.20;94.50;;;;;;5071838;28;20032;-67
2021/05/25 01:45:52;;;;;;;4.05;1.20;;;8.10;94.50;;;;;;5070801;28;21773;-67
2021/05/25 01:48:17;;;;;;;3.60;0.98;;;8.10;94.50;;;;;;5073979;28;20024;-67
2021/05/25 01:50:43;;;;;;;2.88;0.98;;;8.00;94.80;;;;;;5075289;28;20040;-67
2021/05/25 01:53:15;;;;;;;5.93;0.90;;;8.00;94.50;;;;;;5070879;28;20063;-66
2021/05/25 01:55:48;;;;;;;4.22;1.08;;;8.00;94.60;;;;;;5072623;28;20509;-66
2021/05/25 01:58:18;;;;;;;5.40;1.08;;;7.90;94.50;;;;;;5071110;28;20028;-66
2021/05/25 02:01:11;;;;;;;3.33;0.98;;;7.90;94.60;;;;;;5073731;28;21630;-66
2021/05/25 02:03:38;;;;;;;4.60;1.13;;;7.80;94.50;;;;;;5051687;28;20032;-67
2021/05/25 02:06:05;;;;;;;3.08;1.17;;;7.70;94.50;;;;;;5079202;28;20032;-66
2021/05/25 02:08:31;;;;;;;3.20;0.93;;;7.70;94.60;;;;;;5070892;28;20333;-66
2021/05/25 02:11:00;;;;;;;4.93;1.38;;;7.60;94.60;;;;;;5072671;28;20051;-66
2021/05/25 02:13:28;;;;;;;4.97;1.35;;;7.60;94.70;;;;;;5069376;28;20066;-67
2021/05/25 02:15:56;;;;;;;3.50;1.30;;;7.60;94.70;;;;;;5073194;28;20029;-66
2021/05/25 02:18:27;;;;;;;4.90;1.17;;;7.50;94.70;;;;;;5070398;28;20036;-66
2021/05/25 02:20:56;;;;;;;4.68;1.30;;;7.50;94.70;;;;;;5072309;28;20036;-66
2021/05/25 02:23:22;;;;;;;6.03;1.80;;;7.50;94.80;;;;;;5070622;28;20024;-67
2021/05/25 02:25:48;;;;;;;5.45;1.17;;;7.40;94.80;;;;;;5074629;28;20028;-67
2021/05/25 02:28:14;;;;;;;4.88;1.35;;;7.40;94.90;;;;;;5070093;28;20591;-66
2021/05/25 02:30:41;;;;;;;3.10;1.30;;;7.40;94.80;;;;;;5070752;28;20034;-67
2021/05/25 02:33:09;;;;;;;7.18;1.13;;;7.40;94.80;;;;;;5050905;28;20367;-66
2021/05/25 02:35:36;;;;;;;8.07;1.70;;;7.30;94.80;;;;;;5073006;28;20032;-66
2021/05/25 02:38:02;;;;;;;4.07;1.33;;;7.30;94.80;;;;;;5071734;28;20077;-66
2021/05/25 02:40:28;;;;;;;4.63;1.45;;;7.20;94.80;;;;;;5072556;28;20493;-66
2021/05/25 02:42:54;;;;;;;3.88;1.05;;;7.20;94.80;;;;;;5070357;28;20028;-67
2021/05/25 02:45:20;;;;;;;5.30;1.80;;;7.10;94.90;;;;;;5071905;28;20811;-67
2021/05/25 02:47:45;;;;;;;3.42;1.35;;;7.20;95.00;;;;;;5071323;28;20031;-66
2021/05/25 02:50:12;;;;;;;5.53;1.40;;;7.10;95.00;;;;;;5050636;28;20032;-66
2021/05/25 02:52:40;;;;;;;4.07;1.10;;;7.10;95.00;;;;;;5072101;28;20039;-66
2021/05/25 02:55:09;;;;;;;6.10;1.45;;;7.10;95.00;;;;;;5068895;28;20464;-66
2021/05/25 02:57:35;;;;;;;6.03;1.50;;;7.10;95.00;;;;;;5069515;28;20043;-66
2021/05/25 03:00:09;;;;;;;4.88;1.45;;;7.10;95.10;;;;;;5069980;28;20578;-66
2021/05/25 03:02:35;;;;;;;6.35;1.45;;;7.10;95.10;;;;;;5072088;28;20024;-66
2021/05/25 03:05:00;;;;;;;2.72;1.20;;;7.10;95.10;;;;;;5070191;28;20020;-66
2021/05/25 03:07:26;;;;;;;6.00;1.42;;;7.10;95.10;;;;;;5075308;28;20111;-66
2021/05/25 03:09:52;;;;;;;6.80;1.58;;;7.10;95.10;;;;;;5070501;28;20036;-66
2021/05/25 03:12:17;;;;;;;3.67;1.58;;;7.10;95.10;;;;;;5066038;28;20032;-67
2021/05/25 03:14:43;;;;;;;3.65;1.10;;;7.10;95.10;;;;;;5069268;28;20107;-66
2021/05/25 03:17:08;;;;;;;7.28;1.88;;;7.10;95.20;;;;;;5070745;28;20121;-67
2021/05/25 03:19:34;;;;;;;3.80;1.15;;;7.20;95.20;;;;;;5074466;28;20036;-66
2021/05/25 03:21:59;;;;;;;7.00;2.10;;;7.20;95.20;;;;;;5071139;28;20044;-67
2021/05/25 03:24:25;;;;;;;5.32;1.70;;;7.20;95.20;;;;;;5068816;28;20017;-67
2021/05/25 03:26:51;;;;;;;5.70;1.60;;;7.30;95.30;;;;;;5069329;28;20070;-66
2021/05/25 03:29:16;;;;;;;5.43;2.38;;;7.30;95.20;;;;;;5073892;28;20043;-66
2021/05/25 03:31:43;;;;;;;4.45;1.23;;;7.30;95.20;;;;;;5051531;28;20127;-66
2021/05/25 03:34:08;;;;;;;4.45;1.38;;;7.40;95.20;;;;;;5070613;28;20036;-66
2021/05/25 03:36:34;;;;;;;3.63;1.55;;;7.40;95.20;;;;;;5071472;28;20032;-66
2021/05/25 03:38:59;;;;;;;4.38;1.40;;;7.50;95.20;;;;;;5071320;28;20064;-66
2021/05/25 03:41:25;;;;;;;4.05;1.48;;;7.50;95.20;;;;;;5071564;28;20052;-66
2021/05/25 03:43:51;;;;;;;6.50;1.60;;;7.40;95.20;;;;;;5073580;28;21842;-66
2021/05/25 03:46:16;;;;;;;5.40;1.50;;;7.40;95.20;;;;;;5070464;28;20024;-66
2021/05/25 03:48:42;;;;;;;5.03;1.80;;;7.50;95.30;;;;;;5071132;28;20077;-66
2021/05/25 03:51:07;;;;;;;4.43;1.58;;;7.50;95.30;;;;;;5069876;28;20115;-66
2021/05/25 03:53:33;;;;;;;6.57;1.88;;;7.60;95.30;;;;;;5073026;28;20036;-66
2021/05/25 03:56:35;;;;;;;8.20;2.28;;;7.60;95.30;;;;;;5070447;28;20028;-67
2021/05/25 03:58:52;;;;;;;4.53;1.75;;;7.70;95.30;;;;;;5066186;28;20128;-66
2021/05/25 04:01:20;;;;;;;6.50;2.70;;;7.80;95.50;;;;;;5072549;28;20119;-67
2021/05/25 04:03:49;;;;;;;5.60;2.67;;;7.80;95.20;;;;;;5068686;28;20043;-66
2021/05/25 04:06:14;;;;;;;7.00;2.97;;;7.90;95.10;;;;;;5056066;28;20090;-66
2021/05/25 04:08:40;;;;;;;5.22;2.83;;;7.90;95.10;;;;;;5071397;28;20024;-67
2021/05/25 04:11:05;;;;;;;4.47;2.42;;;8.00;95.10;;;;;;5068945;28;20083;-66
2021/05/25 04:13:31;;;;;;;6.55;3.20;;;8.00;95.10;;;;;;5068850;28;20024;-67
2021/05/25 04:15:57;;;;;;;5.88;3.47;;;8.00;95.10;;;;;;5072906;28;20086;-67
2021/05/25 04:18:22;;;;;;;7.38;2.95;;;8.10;95.10;;;;;;5053218;28;20081;-66
2021/05/25 04:20:48;;;;;;;7.47;3.50;;;8.10;95.00;;;;;;5053938;28;20504;-66
2021/05/25 04:23:14;;;;;;;4.93;3.55;;;8.10;95.00;;;;;;5075329;28;20032;-67
2021/05/25 04:25:40;;;;;;;6.70;3.22;;;8.10;95.00;;;;;;5074742;28;20036;-66
2021/05/25 04:28:06;;;;;;;9.77;3.22;;;8.10;95.00;;;;;;5068962;28;20700;-66
2021/05/25 04:30:32;;;;;;;6.93;3.20;;;8.10;95.00;;;;;;5092998;28;20102;-66
2021/05/25 04:32:57;;;;;;;8.13;3.25;;;8.10;94.90;;;;;;5088097;28;20604;-66
2021/05/25 04:35:23;;;;;;;6.07;3.15;;;8.10;95.00;;;;;;5096066;28;20031;-66
2021/05/25 04:37:51;;;;;;;5.53;3.20;;;8.10;95.10;;;;;;5064488;28;20110;-66
2021/05/25 04:40:17;;;;;;;4.80;3.70;;;8.20;95.10;;;;;;5082075;28;20016;-66
2021/05/25 04:42:42;;;;;;;7.00;3.53;;;8.30;95.00;;;;;;5085935;28;20024;-66
2021/05/25 04:45:08;;;;;;;7.15;3.25;;;8.30;94.90;;;;;;5095514;28;20032;-66
2021/05/25 04:47:34;;;;;;;7.47;3.17;;;8.30;94.90;;;;;;5075678;28;20021;-66
2021/05/25 04:50:00;;;;;;;6.00;3.60;;;8.30;94.90;;;;;;5096069;28;20081;-66
2021/05/25 04:52:25;;;;;;;5.60;2.85;;;8.30;94.90;;;;;;5091193;28;20027;-66
2021/05/25 04:54:51;;;;;;;6.70;2.97;;;8.30;94.90;;;;;;5095686;28;20028;-66
2021/05/25 04:57:16;;;;;;;3.95;2.15;;;8.40;95.20;;;;;;5080237;28;20373;-66
2021/05/25 04:59:42;;;;;;;4.45;2.35;;;8.60;95.20;;;;;;5093053;28;20023;-66
2021/05/25 05:02:07;;;;;;;2.60;1.60;;;8.80;95.30;;;;;;5085928;28;20028;-66
2021/05/25 05:04:33;;;;;;;3.42;1.90;;;8.90;95.30;;;;;;5089328;28;20391;-66
2021/05/25 05:06:58;;;;;;;3.15;1.58;;;9.20;95.30;;;;;;5086025;28;20039;-66
2021/05/25 05:09:24;;;;;;;3.22;1.27;;;9.30;95.20;;;;;;5095490;28;20032;-67
2021/05/25 05:11:50;;;;;;;3.20;2.03;;;9.60;95.20;;;;;;5075472;28;20024;-67
2021/05/25 05:14:15;;;;;;;5.40;1.85;;;9.80;94.80;;;;;;5093826;28;20473;-67
2021/05/25 05:16:41;;;;;;;4.30;2.03;;;9.80;94.40;;;;;;5085894;28;20024;-67
2021/05/25 05:19:06;;;;;;;3.42;2.22;;;9.70;94.40;;;;;;5090660;28;20039;-67
2021/05/25 05:21:32;;;;;;;4.28;2.03;;;9.80;94.60;;;;;;5093550;28;20402;-67
2021/05/25 05:23:57;;;;;;;5.85;2.38;;;10.00;94.60;;;;;;5088532;28;20507;-67
2021/05/25 05:26:23;;;;;;;4.38;2.60;;;10.20;94.40;;;;;;5091094;28;20466;-67
2021/05/25 05:28:48;;;;;;;4.43;2.15;;;10.30;94.30;;;;;;5083233;28;20021;-67
2021/05/25 05:31:14;;;;;;;5.28;2.97;;;10.60;94.40;;;;;;5087497;28;20024;-67
2021/05/25 05:33:40;;;;;;;4.40;2.72;;;10.70;93.80;;;;;;5087336;28;20031;-67
2021/05/25 05:36:06;;;;;;;6.20;3.97;;;10.70;93.20;;;;;;5089742;28;20508;-67
2021/05/25 05:38:31;;;;;;;5.45;4.07;;;10.60;92.90;;;;;;5091076;28;20027;-67
2021/05/25 05:41:03;;;;;;;6.78;4.05;;;10.50;92.90;;;;;;5091897;28;20118;-67
2021/05/25 05:43:28;;;;;;;5.70;4.15;;;10.50;92.90;;;;;;5089554;28;20085;-67
2021/05/25 05:45:56;;;;;;;9.27;5.20;;;10.40;92.80;;;;;;5090736;28;20028;-67
2021/05/25 05:48:21;;;;;;;9.38;6.32;;;10.30;92.60;;;;;;5084919;28;20535;-67
2021/05/25 05:50:47;;;;;;;7.80;6.60;;;10.20;92.60;;;;;;5083272;28;20040;-67
2021/05/25 05:53:12;;;;;;;7.18;6.20;;;10.20;92.60;;;;;;5087992;28;20028;-67
2021/05/25 05:55:38;;;;;;;7.10;6.40;;;10.20;92.60;;;;;;5088206;28;20028;-67
2021/05/25 05:58:06;;;;;;;8.73;7.47;;;10.10;92.70;;;;;;5068381;28;20714;-69
2021/05/25 06:00:32;;;;;;;9.32;7.50;;;10.10;92.50;;;;;;5092206;28;20020;-68
2021/05/25 06:03:00;;;;;;;9.75;7.68;;;10.10;92.40;;;;;;5089715;28;20074;-68
2021/05/25 06:05:26;;;;;;;9.88;8.75;;;10.00;92.40;;;;;;5092169;28;20034;-67
2021/05/25 06:07:52;;;;;;;11.38;8.82;;;10.00;92.40;;;;;;5088711;28;20024;-67
2021/05/25 06:10:18;;;;;;;11.32;10.13;;;10.00;92.50;;;;;;5090249;28;20031;-68
2021/05/25 06:12:47;;;;;;;12.18;9.95;;;10.00;92.50;;;;;;5076272;28;20036;-68
2021/05/25 06:15:13;;;;;;;11.48;9.98;;;9.90;92.60;;;;;;5087674;28;20044;-67
2021/05/25 06:17:40;;;;;;;13.20;10.27;;;10.00;92.70;;;;;;5079480;28;20044;-68
2021/05/25 06:20:07;;;;;;;11.35;9.65;;;10.10;92.90;;;;;;5075858;28;20022;-68
2021/05/25 06:22:32;;;;;;;11.80;9.93;;;10.40;92.80;;;;;;5092308;28;20032;-69
2021/05/25 06:24:59;;;;;;;11.00;9.15;;;10.60;92.50;;;;;;5074112;28;20024;-68
2021/05/25 06:27:24;;;;;;;12.13;9.10;;;10.70;92.00;;;;;;5092723;28;20054;-68
2021/05/25 06:29:50;;;;;;;10.85;9.30;;;10.60;91.80;;;;;;5088013;28;20024;-68
2021/05/25 06:32:15;;;;;;;11.45;8.05;;;10.60;91.60;;;;;;5083529;28;20031;-68
2021/05/25 06:34:41;;;;;;;10.00;8.60;;;10.60;91.70;;;;;;5090210;28;20028;-67
2021/05/25 06:37:06;;;;;;;10.13;8.93;;;10.50;91.60;;;;;;5089854;28;20119;-67
2021/05/25 06:39:32;;;;;;;11.30;8.80;;;10.50;91.70;;;;;;5085799;28;20086;-67
2021/05/25 06:41:58;;;;;;;11.48;9.27;;;10.50;91.60;;;;;;5080555;28;20035;-66
2021/05/25 06:44:23;;;;;;;10.57;9.45;;;10.40;91.70;;;;;;5075280;28;20031;-66
2021/05/25 06:46:49;;;;;;;12.02;10.38;;;10.50;91.90;;;;;;5075247;28;20027;-66
2021/05/25 06:49:24;;;;;;;10.13;8.77;;;10.50;91.90;;;;;;5087106;28;20055;-69
2021/05/25 06:51:49;;;;;;;10.55;9.20;;;10.60;91.60;;;;;;5091811;28;20028;-68
2021/05/25 06:54:15;;;;;;;12.07;10.25;;;10.70;91.60;;;;;;5090312;28;20032;-68
2021/05/25 06:56:40;;;;;;;10.65;9.07;;;10.80;91.60;;;;;;5093194;28;20039;-67
2021/05/25 06:59:06;;;;;;;10.68;9.68;;;10.90;91.50;;;;;;5093256;28;20028;-67
2021/05/25 07:01:31;;;;;;;9.95;8.95;;;11.10;91.30;;;;;;5072452;28;20115;-67
2021/05/25 07:03:57;;;;;;;14.65;9.38;;;11.20;91.10;;;;;;5089568;28;20017;-67
2021/05/25 07:06:23;;;;;;;12.88;9.38;;;11.30;91.10;;;;;;5071769;28;20013;-67
2021/05/25 07:08:48;;;;;;;10.45;7.80;;;11.30;90.60;;;;;;5085785;28;20024;-68
2021/05/25 07:11:14;;;;;;;7.95;7.25;;;11.20;90.50;;;;;;5093553;28;20043;-67
2021/05/25 07:13:40;;;;;;;10.30;7.80;;;11.10;90.40;;;;;;5073613;28;20028;-67
2021/05/25 07:16:05;;;;;;;7.75;6.95;;;11.00;90.30;;;;;;5091787;28;20036;-67
2021/05/25 07:18:31;;;;;;;8.02;7.13;;;10.90;90.60;;;;;;5088172;28;20052;-67
2021/05/25 07:20:56;;;;;;;8.05;7.15;;;10.90;91.20;;;;;;5092542;28;20040;-68
2021/05/25 07:23:22;;;;;;;11.55;7.53;;;11.00;91.00;;;;;;5093173;28;20020;-66
2021/05/25 07:25:47;;;;;;;10.32;7.80;;;11.10;91.00;;;;;;5075521;28;20024;-65
2021/05/25 07:28:13;;;;;;;9.13;8.07;;;11.20;91.00;;;;;;5069230;28;20031;-66
2021/05/25 07:30:39;;;;;;;9.32;7.22;;;11.30;90.90;;;;;;5093698;28;20125;-67
2021/05/25 07:33:05;;;;;;;9.32;7.88;;;11.40;90.60;;;;;;5090735;28;20047;-67
2021/05/25 07:35:30;;;;;;;8.48;7.53;;;11.50;90.60;;;;;;5093043;28;20028;-66
2021/05/25 07:37:56;;;;;;;8.23;7.38;;;11.60;90.60;;;;;;5090563;28;20089;-66
2021/05/25 07:40:22;;;;;;;7.95;7.15;;;11.80;90.60;;;;;;5088278;28;20024;-67
2021/05/25 07:42:47;;;;;;;8.15;6.97;;;11.90;90.20;;;;;;5083891;28;20021;-67
2021/05/25 07:45:15;;;;;;;11.50;7.72;;;12.00;90.20;;;;;;5073437;28;20020;-67
2021/05/25 07:47:40;;;;;;;9.35;6.05;;;12.10;90.20;;;;;;5073599;28;20024;-67
2021/05/25 07:50:13;;;;;;;7.40;5.65;;;12.20;89.70;;;;;;5092574;28;20035;-68
2021/05/25 07:52:47;;;;;;;5.30;4.80;;;12.30;89.80;;;;;;5092565;28;20397;-68
2021/05/25 07:55:14;;;;;;;6.88;4.38;;;12.50;89.40;;;;;;5092522;28;20554;-67
2021/05/25 07:57:40;;;;;;;6.35;4.40;;;12.70;89.50;;;;;;5091108;28;20024;-67
2021/05/25 08:00:11;;;;;;;4.53;3.38;;;12.90;88.80;;;;;;5092442;28;20023;-67
2021/05/25 08:02:37;;;;;;;5.97;2.72;;;12.90;88.00;;;;;;5092473;28;20027;-67
2021/05/25 08:05:04;;;;;;;7.82;3.22;;;12.80;87.90;;;;;;5093243;28;20097;-68
2021/05/25 08:07:29;;;;;;;4.88;2.40;;;12.80;88.70;;;;;;5091876;28;20020;-67
2021/05/25 08:09:55;;;;;;;3.35;1.77;;;12.90;89.00;;;;;;5078403;28;20032;-65
2021/05/25 08:12:21;;;;;;;3.60;1.20;;;12.90;88.40;;;;;;5092542;28;20028;-66
2021/05/25 08:14:46;;;;;;;3.33;1.17;;;12.90;88.40;;;;;;5071573;28;20047;-65
2021/05/25 08:17:25;;;;;;;3.72;1.17;;;12.90;87.90;;;;;;5089674;28;20028;-66
2021/05/25 08:19:51;;;;;;;4.57;1.50;;;12.80;88.40;;;;;;5086646;28;20382;-66
2021/05/25 08:22:16;;;;;;;3.55;1.70;;;12.90;88.50;;;;;;5085036;28;20039;-66
2021/05/25 08:24:43;;;;;;;4.78;2.15;;;13.00;88.20;;;;;;5092044;28;20103;-66
2021/05/25 08:27:08;;;;;;;5.20;1.75;;;12.90;87.70;;;;;;5075544;28;20035;-66
2021/05/25 08:29:34;;;;;;;4.18;1.70;;;12.90;87.60;;;;;;5085576;28;20106;-66
2021/05/25 08:32:00;;;;;;;6.55;2.83;;;12.90;86.90;;;;;;5092208;28;20453;-66
2021/05/25 08:34:25;;;;;;;5.15;2.00;;;12.90;86.90;;;;;;5092685;28;20107;-66
2021/05/25 08:36:52;;;;;;;6.78;2.13;;;12.90;86.90;;;;;;5090100;28;20083;-66
2021/05/25 08:39:18;;;;;;;6.50;2.22;;;12.90;87.40;;;;;;5089073;28;20085;-66
2021/05/25 08:41:44;;;;;;;6.90;2.78;;;13.00;87.00;;;;;;5090706;28;20024;-66
2021/05/25 08:44:10;;;;;;;6.30;2.22;;;13.20;87.50;;;;;;5087792;28;20390;-66
2021/05/25 08:46:37;;;;;;;6.35;2.28;;;13.50;87.00;;;;;;5074959;28;20081;-66
2021/05/25 08:49:06;;;;;;;8.02;1.70;;;13.60;85.90;;;;;;5061565;28;20035;-66
2021/05/25 08:51:31;;;;;;;6.22;1.35;;;13.50;85.50;;;;;;5091038;28;20438;-66
2021/05/25 08:53:59;;;;;;;6.85;1.85;;;13.30;85.10;;;;;;5092037;28;20059;-65
2021/05/25 08:56:24;;;;;;;8.50;2.22;;;13.00;85.40;;;;;;5081647;28;20024;-67
2021/05/25 08:58:50;;;;;;;5.22;1.65;;;12.80;86.20;;;;;;5089225;28;20024;-66
2021/05/25 09:01:16;;;;;;;4.68;1.10;;;12.30;87.50;;;;;;5095119;28;20024;-67
2021/05/25 09:03:56;;;;;;;2.85;0.30;;;12.00;88.20;;;;;;5086677;28;20378;-69
2021/05/25 09:06:40;;;;;;;2.08;0.20;;;11.20;87.40;;;;;;5078062;28;20129;-68
2021/05/25 09:09:14;;;;;;;1.83;0.20;;;10.40;89.30;;;;;;5092242;28;20474;-69
2021/05/25 09:12:12;;;;;;;2.85;0.45;;;9.90;90.60;;;;;;5096287;28;20020;-69
2021/05/25 09:14:51;;;;;;;3.63;0.30;;;9.60;91.20;;;;;;5042067;28;20036;-68
2021/05/25 09:17:24;;;;;;;2.33;0.40;;;9.30;91.70;;;;;;5093745;28;20028;-67
2021/05/25 09:19:52;;;;;;;6.30;0.63;;;9.20;92.00;;;;;;5076486;28;20031;-67
2021/05/25 09:22:40;;;;;;;3.42;0.40;;;9.20;92.30;;;;;;5095748;28;20085;-69
2021/05/25 09:25:18;;;;;;;3.53;0.60;;;9.20;92.60;;;;;;5095700;28;20059;-67
2021/05/25 09:27:48;;;;;;;7.13;0.50;;;9.20;92.70;;;;;;5093730;28;20094;-68
2021/05/25 09:30:15;;;;;;;4.55;0.47;;;9.30;93.00;;;;;;5094977;28;20039;-67
2021/05/25 09:32:48;;;;;;;3.78;0.60;;;9.50;93.20;;;;;;5091461;28;20031;-67
2021/05/25 09:35:16;;;;;;;2.05;0.45;;;9.70;93.30;;;;;;5094607;28;20039;-68
2021/05/25 09:37:47;;;;;;;3.53;0.80;;;10.00;93.40;;;;;;5090614;28;20112;-67
2021/05/25 09:40:18;;;;;;;2.28;0.80;;;10.30;93.50;;;;;;5095516;28;20051;-67
2021/05/25 09:42:45;;;;;;;3.38;0.77;;;10.70;93.30;;;;;;5093260;28;20466;-66
2021/05/25 09:45:14;;;;;;;4.57;1.05;;;10.90;93.20;;;;;;5091809;28;20030;-67
2021/05/25 09:47:42;;;;;;;4.40;1.55;;;11.10;93.40;;;;;;5093951;28;20459;-67
2021/05/25 09:50:11;;;;;;;6.97;2.40;;;11.30;93.40;;;;;;5088315;28;20466;-66
2021/05/25 09:52:59;;;;;;;8.02;2.15;;;11.50;93.60;;;;;;5094211;28;20032;-68
2021/05/25 09:55:25;;;;;;;8.00;2.38;;;11.50;93.40;;;;;;5092674;28;20390;-68
2021/05/25 09:57:54;;;;;;;3.95;1.95;;;11.50;93.50;;;;;;5094074;28;20028;-67
2021/05/25 10:00:23;;;;;;;7.32;1.80;;;11.50;93.80;;;;;;5083374;28;20027;-68
2021/05/25 10:03:13;;;;;;;5.43;2.35;;;11.40;93.60;;;;;;5074764;28;20024;-68
2021/05/25 10:05:50;;;;;;;4.38;1.98;;;11.30;93.60;;;;;;5095264;28;20027;-68
2021/05/25 10:08:17;;;;;;;7.10;2.70;;;11.30;93.90;;;;;;5094704;28;20125;-67
2021/05/25 10:10:44;;;;;;;10.73;3.42;;;11.50;94.30;;;;;;5076325;28;20031;-67
2021/05/25 10:13:11;;;;;;;6.22;2.83;;;11.70;94.60;;;;;;5076770;28;20040;-68
2021/05/25 10:15:38;;;;;;;7.07;3.30;;;12.00;94.40;;;;;;5095098;28;20032;-68
2021/05/25 10:20:31;;;;;;;7.50;3.50;;;12.60;94.10;;;;;;5094898;28;20017;-67
2021/05/25 10:22:57;;;;;;;7.15;3.03;;;12.90;93.70;;;;;;5094480;28;20035;-67
2021/05/25 10:25:25;;;;;;;7.68;2.60;;;13.20;93.30;;;;;;5059074;28;20020;-69
2021/05/25 10:27:51;;;;;;;7.18;3.00;;;13.40;92.70;;;;;;5072295;28;20043;-67
2021/05/25 10:30:26;;;;;;;9.63;2.70;;;13.50;91.70;;;;;;5094609;28;20035;-67
2021/05/25 10:33:05;;;;;;;9.50;2.42;;;13.60;91.60;;;;;;5092635;28;20115;-67
2021/05/25 10:35:53;;;;;;;8.80;2.63;;;13.70;91.40;;;;;;5094367;28;20032;-66
2021/05/25 10:38:22;;;;;;;6.57;1.90;;;13.60;90.20;;;;;;5094142;28;20028;-67
2021/05/25 10:40:50;;;;;;;5.30;1.55;;;13.40;90.40;;;;;;5094439;28;20038;-67
2021/05/25 10:43:34;;;;;;;4.85;1.60;;;13.30;90.50;;;;;;5073948;28;20477;-67
2021/05/25 10:46:12;;;;;;;4.78;1.40;;;13.20;90.20;;;;;;5055866;28;20025;-67
2021/05/25 10:48:58;;;;;;;8.48;1.40;;;13.20;89.70;;;;;;5073967;28;20027;-67
2021/05/25 10:54:34;;;;;;;6.55;1.35;;;13.20;89.50;;;;;;5094031;28;20398;-66
2021/05/25 10:57:04;;;;;;;7.68;2.00;;;13.30;88.40;;;;;;5093831;28;20524;-66
2021/05/25 11:00:01;;;;;;;6.07;1.10;;;13.20;85.60;;;;;;5092995;28;20032;-67
2021/05/25 11:02:43;;;;;;;4.22;0.77;;;13.20;85.50;;;;;;5086027;28;20024;-67
2021/05/25 11:05:30;;;;;;;4.13;0.82;;;13.30;84.90;;;;;;5086396;28;20427;-67
2021/05/25 11:08:17;;;;;;;3.97;0.60;;;13.50;82.80;;;;;;5093991;28;20035;-67
2021/05/25 11:10:45;;;;;;;3.50;0.80;;;13.50;81.60;;;;;;5092876;28;20024;-67
2021/05/25 11:13:21;;;;;;;5.68;1.27;;;13.50;82.90;;;;;;5092927;28;20034;-67
2021/05/25 11:18:37;;;;;;;3.78;0.50;;;13.70;83.80;;;;;;5093167;28;20089;-67
2021/05/25 11:21:29;;;;;;;2.70;0.40;;;13.90;81.40;;;;;;5092840;28;20055;-67
2021/05/25 11:23:56;;;;;;;3.28;0.40;;;14.00;79.60;;;;;;5073065;28;20508;-67
2021/05/25 11:27:00;;;;;;;5.85;0.55;;;14.20;76.80;;;;;;5073690;28;20032;-67
2021/05/25 11:29:27;;;;;;;3.72;0.50;;;14.40;78.70;;;;;;5073390;28;20029;-67
2021/05/25 11:31:56;;;;;;;3.53;0.50;;;14.70;79.00;;;;;;5084539;28;20090;-67
2021/05/25 11:34:24;;;;;;;7.25;0.88;;;14.90;78.20;;;;;;5093064;28;20031;-67
2021/05/25 11:36:54;;;;;;;3.10;0.50;;;15.00;76.20;;;;;;5093438;28;20097;-67
2021/05/25 11:39:20;;;;;;;3.78;0.50;;;15.10;75.90;;;;;;5093060;28;20016;-67
2021/05/25 11:41:46;;;;;;;4.57;0.55;;;15.30;77.20;;;;;;5075318;28;20076;-66
2021/05/25 11:44:12;;;;;;;4.40;0.40;;;15.40;77.10;;;;;;5093356;28;20077;-67
2021/05/25 11:46:41;;;;;;;2.50;0.38;;;15.30;74.10;;;;;;5093556;28;20023;-66
2021/05/25 11:49:08;;;;;;;2.00;0.30;;;15.20;73.00;;;;;;5074949;28;20452;-67
2021/05/25 11:51:33;;;;;;;5.25;0.30;;;15.10;72.20;;;;;;5080568;28;20067;-67
2021/05/25 11:54:17;;;;;;;3.45;0.65;;;14.90;72.30;;;;;;5073369;28;20025;-67
2021/05/25 11:56:50;;;;;;;4.88;0.40;;;14.80;72.10;;;;;;5073010;28;20024;-67
2021/05/25 11:59:20;;;;;;;6.88;0.28;;;14.70;72.50;;;;;;5089000;28;20035;-67
2021/05/25 12:01:51;;;;;;;3.00;0.40;;;14.80;72.50;;;;;;5088947;28;20036;-67
2021/05/25 12:04:19;;;;;;;2.47;0.20;;;14.70;70.50;;;;;;5093134;28;20024;-66
2021/05/25 12:06:52;;;;;;;1.85;0.10;;;14.60;70.10;;;;;;5093201;28;20538;-66
2021/05/25 12:09:19;;;;;;;4.80;0.10;;;14.30;68.80;;;;;;5092628;28;20039;-66
2021/05/25 12:11:46;;;;;;;1.63;0.10;;;13.90;70.10;;;;;;5093076;28;20066;-67
2021/05/25 12:14:14;;;;;;;1.30;0.10;;;13.50;72.20;;;;;;5092509;28;20378;-67
2021/05/25 12:16:42;;;;;;;0.43;0.10;;;13.10;73.70;;;;;;5092979;28;20065;-67
2021/05/25 12:19:08;;;;;;;1.75;0.10;;;12.80;75.50;;;;;;5092890;28;20022;-67
2021/05/25 12:21:35;;;;;;;1.30;0.22;;;12.30;77.40;;;;;;5074078;28;20036;-66
2021/05/25 12:24:02;;;;;;;2.85;0.20;;;11.90;79.80;;;;;;5075134;28;20531;-66
2021/05/25 12:26:27;;;;;;;3.22;0.10;;;11.50;82.10;;;;;;5092997;28;20465;-67
2021/05/25 12:28:55;;;;;;;1.48;0.10;;;11.40;83.80;;;;;;5092418;28;20032;-67
2021/05/25 12:31:21;;;;;;;3.13;0.38;;;11.40;84.90;;;;;;5089582;28;20024;-67
2021/05/25 12:33:49;;;;;;;1.98;0.20;;;11.50;85.40;;;;;;5091037;28;20023;-67
2021/05/25 12:36:17;;;;;;;1.25;0.20;;;11.80;86.80;;;;;;5096269;28;20053;-67
2021/05/25 12:39:15;;;;;;;1.33;0.20;;;12.10;86.20;;;;;;5077634;28;20035;-67
2021/05/25 12:41:46;;;;;;;1.88;0.25;;;12.40;86.10;;;;;;5093470;28;20024;-67
2021/05/25 12:44:19;;;;;;;2.15;0.20;;;12.70;85.70;;;;;;5096934;28;20058;-67
2021/05/25 12:46:52;;;;;;;1.80;0.20;;;13.00;85.70;;;;;;5096615;28;20024;-66
2021/05/25 12:49:38;;;;;;;2.58;0.38;;;13.30;84.90;;;;;;5076327;28;20029;-66
2021/05/25 12:52:29;;;;;;;1.88;0.50;;;13.40;84.20;;;;;;5076392;28;20490;-67
2021/05/25 12:54:57;;;;;;;2.65;0.30;;;13.40;84.30;;;;;;5076514;28;20028;-67
2021/05/25 12:57:40;;;;;;;2.60;0.50;;;13.30;84.10;;;;;;5095147;28;20028;-67
2021/05/25 13:00:07;;;;;;;3.75;0.75;;;13.20;84.20;;;;;;5093137;28;20066;-67
2021/05/25 13:02:37;;;;;;;4.05;0.57;;;13.00;84.20;;;;;;5082435;28;20024;-66
2021/05/25 13:05:11;;;;;;;4.55;0.75;;;12.90;84.90;;;;;;5096146;28;20028;-67